Time;durP1;ratioP1;P1;durP2;ratioP2;P2;SDS_P1;SDS_P2;PMS_P1;PMS_P2;Temp;Humidity;BMP_temperature;BMP_pressure;BME280_temperature;BME280_humidity;BME280_pressure;Samples;Min_cycle;Max_cycle;Signal;HPM_P1;HPM_P2
2021/06/12 00:03:04;;;;;;;12.27;9.30;;;;;;;16.38;62.92;99942.98;126890;1089;114361;-81
2021/06/12 00:05:51;;;;;;;12.97;9.80;;;;;;;16.36;63.14;99933.50;126833;1090;102875;-81
2021/06/12 00:08:39;;;;;;;11.97;9.23;;;;;;;16.35;63.39;99931.81;126818;1088;113175;-81
2021/06/12 00:11:28;;;;;;;12.43;9.40;;;;;;;16.33;63.05;99935.34;126937;1090;102898;-81
2021/06/12 00:14:17;;;;;;;13.70;9.07;;;;;;;16.33;63.43;99929.24;126856;1090;114270;-82
2021/06/12 00:17:05;;;;;;;12.17;10.10;;;;;;;16.30;63.38;99938.17;126895;1090;102891;-82
2021/06/12 00:19:53;;;;;;;12.77;9.30;;;;;;;16.29;63.54;99931.22;126812;1088;101449;-81
2021/06/12 00:22:43;;;;;;;10.07;8.90;;;;;;;16.26;63.28;99933.20;126782;1090;114203;-81
2021/06/12 00:25:31;;;;;;;13.27;10.07;;;;;;;16.24;63.24;99933.30;126904;1089;102870;-82
2021/06/12 00:28:20;;;;;;;12.30;9.57;;;;;;;16.23;63.35;99923.70;126809;1090;114411;-81
2021/06/12 00:31:08;;;;;;;12.35;9.05;;;;;;;16.23;63.21;99917.59;126847;1088;103023;-81
2021/06/12 00:33:57;;;;;;;10.77;8.43;;;;;;;16.22;63.31;99913.28;126926;1090;113210;-81
2021/06/12 00:36:45;;;;;;;12.80;8.33;;;;;;;16.20;63.12;99918.63;126879;1088;102875;-81
2021/06/12 00:39:33;;;;;;;9.97;8.73;;;;;;;16.20;63.43;99923.05;126838;1090;114230;-82
2021/06/12 00:42:21;;;;;;;10.80;8.67;;;;;;;16.15;63.20;99912.78;126934;1090;102857;-81
2021/06/12 00:45:18;;;;;;;10.00;8.10;;;;;;;16.13;63.52;99906.77;126892;1090;114255;-81
2021/06/12 00:48:07;;;;;;;10.38;8.55;;;;;;;16.12;63.46;99910.34;126972;1090;102951;-81
2021/06/12 00:50:56;;;;;;;10.97;8.57;;;;;;;16.10;63.70;99912.22;126764;1089;114306;-81
2021/06/12 00:53:45;;;;;;;11.80;8.67;;;;;;;16.10;63.64;99901.70;127030;1090;103235;-81
2021/06/12 00:56:33;;;;;;;11.57;8.70;;;;;;;16.09;63.55;99894.75;126816;1088;113190;-82
2021/06/12 00:59:22;;;;;;;11.47;8.63;;;;;;;16.08;63.64;99894.84;126867;1088;100426;-82
2021/06/12 01:02:10;;;;;;;11.10;9.40;;;;;;;16.02;63.84;99893.44;126931;1089;102932;-82
2021/06/12 01:04:57;;;;;;;10.47;8.83;;;;;;;15.98;63.67;99889.30;126729;1090;113977;-82
2021/06/12 01:07:45;;;;;;;13.43;9.43;;;;;;;15.95;63.61;99886.83;126860;1090;102987;-82
2021/06/12 01:10:33;;;;;;;13.23;9.77;;;;;;;15.94;63.85;99888.62;126941;1090;114397;-82
2021/06/12 01:13:51;;;;;;;12.47;8.73;;;;;;;15.92;63.82;99892.28;127089;1090;100857;-81
2021/06/12 01:17:02;;;;;;;13.43;9.05;;;;;;;15.92;64.19;99887.02;126990;1089;113284;-81
2021/06/12 01:20:07;;;;;;;12.77;9.23;;;;;;;15.86;63.88;99890.88;126907;1090;102874;-81
2021/06/12 01:23:11;;;;;;;11.00;8.40;;;;;;;15.86;63.75;99897.92;126801;1090;114023;-81
2021/06/12 01:26:17;;;;;;;11.00;8.60;;;;;;;15.87;63.88;99894.34;127039;1090;103032;-80
2021/06/12 01:29:38;;;;;;;10.47;8.17;;;;;;;15.88;63.65;99886.37;126852;1090;114134;-81
2021/06/12 01:32:31;;;;;;;8.70;7.80;;;;;;;15.84;63.31;99889.28;126931;1089;103367;-82
2021/06/12 01:35:32;;;;;;;9.87;7.50;;;;;;;15.80;63.03;99888.63;126840;1090;114432;-83
2021/06/12 01:38:30;;;;;;;14.07;8.00;;;;;;;15.81;62.81;99894.72;126828;1090;103018;-82
2021/06/12 01:41:21;;;;;;;9.13;6.80;;;;;;;15.80;62.89;99893.88;126766;1090;112938;-82
2021/06/12 01:44:12;;;;;;;10.13;7.20;;;;;;;15.77;63.02;99899.29;126835;1090;102887;-82
2021/06/12 01:47:03;;;;;;;8.67;7.03;;;;;;;15.74;62.96;99896.00;126817;1090;114239;-82
2021/06/12 01:49:52;;;;;;;7.97;6.73;;;;;;;15.74;63.04;99899.48;126878;1090;103087;-83
2021/06/12 01:52:47;;;;;;;9.13;7.47;;;;;;;15.71;63.03;99897.88;126826;1090;113174;-82
2021/06/12 01:55:38;;;;;;;10.65;7.50;;;;;;;15.67;63.03;99900.78;126872;1090;103086;-82
2021/06/12 01:58:27;;;;;;;10.43;6.83;;;;;;;15.67;62.66;99899.00;126735;1090;114116;-82
2021/06/12 02:01:18;;;;;;;10.73;7.07;;;;;;;15.65;62.72;99892.15;126857;1090;102900;-82
2021/06/12 02:04:09;;;;;;;7.80;6.87;;;;;;;15.62;63.07;99898.44;126717;1090;114296;-82
2021/06/12 02:07:02;;;;;;;8.65;6.95;;;;;;;15.61;63.07;99898.49;126931;1089;101604;-82
2021/06/12 02:09:51;;;;;;;10.73;7.17;;;;;;;15.57;63.08;99891.70;126844;1090;112721;-82
2021/06/12 02:12:52;;;;;;;7.70;7.00;;;;;;;15.55;63.29;99891.79;126872;1090;103035;-82
2021/06/12 02:15:41;;;;;;;8.67;7.33;;;;;;;15.51;62.96;99897.32;126891;1090;113842;-82
2021/06/12 02:18:29;;;;;;;7.45;6.65;;;;;;;15.49;62.98;99894.78;126884;1088;103358;-82
2021/06/12 02:21:20;;;;;;;10.93;7.30;;;;;;;15.48;62.90;99898.35;126937;1089;114425;-82
2021/06/12 02:24:09;;;;;;;8.80;7.40;;;;;;;15.47;63.20;99894.03;126866;1090;102942;-82
2021/06/12 02:26:59;;;;;;;10.53;7.27;;;;;;;15.46;63.15;99894.13;126873;1088;102872;-82
2021/06/12 02:29:51;;;;;;;8.63;7.73;;;;;;;15.45;63.09;99901.16;126914;1090;101242;-83
2021/06/12 02:32:44;;;;;;;9.33;7.53;;;;;;;15.45;63.50;99902.95;126973;1089;103010;-82
2021/06/12 02:35:33;;;;;;;9.27;7.70;;;;;;;15.45;63.52;99903.79;126732;1090;114025;-82
2021/06/12 02:38:23;;;;;;;11.50;8.23;;;;;;;15.43;63.48;99898.59;126920;1088;102862;-82
2021/06/12 02:41:12;;;;;;;13.47;7.80;;;;;;;15.43;63.22;99898.59;126770;1089;114188;-83
2021/06/12 02:44:00;;;;;;;12.83;7.97;;;;;;;15.44;63.44;99886.33;126896;1088;103309;-82
2021/06/12 02:46:48;;;;;;;9.63;7.50;;;;;;;15.47;63.49;99888.77;126722;1090;114139;-82
2021/06/12 02:49:38;;;;;;;10.57;7.63;;;;;;;15.51;63.27;99882.40;126862;1090;103004;-83
2021/06/12 02:52:30;;;;;;;8.90;7.70;;;;;;;15.59;63.17;99885.44;126794;1090;114494;-83
2021/06/12 02:55:22;;;;;;;9.10;7.25;;;;;;;15.68;63.11;99879.66;126801;1089;102844;-82
2021/06/12 02:58:13;;;;;;;11.27;9.30;;;;;;;15.77;63.27;99869.52;126689;1089;114264;-82
2021/06/12 03:01:02;;;;;;;13.07;9.20;;;;;;;15.82;62.83;99864.86;126775;1090;102871;-82
2021/06/12 03:03:52;;;;;;;11.37;9.10;;;;;;;15.89;62.60;99874.91;126725;1088;114046;-82
2021/06/12 03:06:48;;;;;;;10.13;8.57;;;;;;;15.99;62.68;99873.43;126845;1090;102847;-82
2021/06/12 03:09:37;;;;;;;10.27;7.83;;;;;;;16.01;62.65;99866.29;126992;1089;102858;-82
2021/06/12 03:12:28;;;;;;;11.63;8.00;;;;;;;16.01;62.22;99868.08;126890;1090;103599;-82
2021/06/12 03:15:18;;;;;;;11.17;7.77;;;;;;;15.96;62.39;99867.48;126785;1089;102921;-82
2021/06/12 03:18:07;;;;;;;11.27;8.17;;;;;;;15.91;62.38;99864.30;126750;1090;113042;-82
2021/06/12 03:21:01;;;;;;;12.03;8.07;;;;;;;15.89;62.36;99863.54;127002;1089;102860;-82
2021/06/12 03:23:51;;;;;;;11.27;8.30;;;;;;;15.88;62.37;99867.11;126743;1090;114490;-82
2021/06/12 03:26:40;;;;;;;12.57;8.10;;;;;;;15.89;62.58;99871.43;126796;1089;101655;-82
2021/06/12 03:29:28;;;;;;;10.10;8.00;;;;;;;15.93;62.57;99876.41;126725;1088;114243;-82
2021/06/12 03:32:16;;;;;;;12.43;8.67;;;;;;;16.00;62.59;99866.38;126874;1090;102949;-82
2021/06/12 03:35:07;;;;;;;10.90;8.50;;;;;;;16.06;62.54;99867.78;126700;1088;114094;-82
2021/06/12 03:37:58;;;;;;;12.93;8.47;;;;;;;16.11;62.30;99861.30;126926;1089;103593;-82
2021/06/12 03:40:46;;;;;;;9.60;8.60;;;;;;;16.20;62.27;99860.75;126805;1090;114639;-82
2021/06/12 03:43:36;;;;;;;9.67;8.10;;;;;;;16.27;62.07;99864.68;126937;1089;102855;-82
2021/06/12 03:46:25;;;;;;;14.27;8.47;;;;;;;16.33;61.95;99856.39;126763;1090;113189;-82
2021/06/12 03:49:16;;;;;;;11.17;9.00;;;;;;;16.42;62.06;99859.41;126843;1088;102957;-82
2021/06/12 03:52:05;;;;;;;11.50;8.50;;;;;;;16.51;61.82;99856.20;126845;1090;114288;-82
2021/06/12 03:54:56;;;;;;;9.17;8.20;;;;;;;16.55;61.68;99860.34;126882;1090;101654;-83
2021/06/12 03:57:44;;;;;;;9.70;8.67;;;;;;;16.60;61.61;99855.63;126839;1090;102907;-82
2021/06/12 04:00:33;;;;;;;11.50;9.23;;;;;;;16.65;61.60;99856.17;126872;1090;113709;-82
2021/06/12 04:03:21;;;;;;;9.90;8.43;;;;;;;16.72;61.61;99852.27;126934;1090;102895;-82
2021/06/12 04:06:13;;;;;;;10.80;9.00;;;;;;;16.76;61.40;99851.12;126711;1090;114338;-82
2021/06/12 04:09:02;;;;;;;8.93;8.00;;;;;;;16.82;61.52;99855.98;126899;1090;102903;-82
2021/06/12 04:11:51;;;;;;;11.27;8.60;;;;;;;16.91;61.50;99858.04;126726;1089;114184;-82
2021/06/12 04:14:40;;;;;;;10.33;8.83;;;;;;;17.03;61.41;99860.80;126887;1090;102912;-82
2021/06/12 04:17:28;;;;;;;10.03;8.73;;;;;;;17.14;61.28;99858.33;126781;1089;112942;-83
2021/06/12 04:20:15;;;;;;;10.77;9.67;;;;;;;17.29;61.03;99856.48;126912;1090;103026;-82
2021/06/12 04:23:03;;;;;;;10.30;9.10;;;;;;;17.45;60.83;99857.16;126766;1089;114079;-82
2021/06/12 04:25:52;;;;;;;12.73;9.37;;;;;;;17.62;60.72;99861.31;126873;1088;102654;-82
2021/06/12 04:28:39;;;;;;;11.70;9.80;;;;;;;17.79;60.42;99855.77;126733;1089;113266;-82
2021/06/12 04:31:27;;;;;;;;;;;;;;;17.93;60.44;99853.01;126878;1090;102953;-82
2021/06/12 04:34:15;;;;;;;11.35;9.43;;;;;;;18.04;60.22;99853.13;126770;1090;102850;-82
2021/06/12 04:37:03;;;;;;;10.67;9.43;;;;;;;18.18;60.06;99851.33;126892;1090;102994;-82
2021/06/12 04:39:51;;;;;;;10.13;9.13;;;;;;;18.28;59.86;99855.84;126787;1089;102674;-82
2021/06/12 04:42:39;;;;;;;12.10;9.40;;;;;;;18.39;59.76;99849.81;126845;1089;113858;-82
2021/06/12 04:45:28;;;;;;;12.93;10.00;;;;;;;18.49;59.47;99855.27;126848;1089;102906;-83
2021/06/12 04:48:16;;;;;;;12.07;9.60;;;;;;;18.62;59.42;99851.66;126750;1090;113519;-82
2021/06/12 04:51:04;;;;;;;11.93;9.73;;;;;;;18.75;59.16;99848.17;126848;1090;102851;-82
2021/06/12 04:53:53;;;;;;;12.50;9.80;;;;;;;18.87;58.82;99849.94;126658;1090;114227;-82
2021/06/12 04:56:42;;;;;;;11.60;10.40;;;;;;;18.93;58.83;99847.69;126896;1089;102852;-83
2021/06/12 04:59:30;;;;;;;11.35;9.95;;;;;;;19.02;58.69;99860.20;126769;1089;114438;-83
2021/06/12 05:02:18;;;;;;;14.90;10.50;;;;;;;19.13;58.43;99862.08;126854;1090;101172;-83
2021/06/12 05:05:09;;;;;;;12.93;10.37;;;;;;;19.23;58.42;99855.17;126751;1089;113191;-83
2021/06/12 05:07:58;;;;;;;11.80;10.60;;;;;;;19.28;58.23;99850.38;126820;1090;103063;-82
2021/06/12 05:10:48;;;;;;;13.63;10.63;;;;;;;19.40;58.21;99853.08;126760;1090;114475;-82
2021/06/12 05:13:36;;;;;;;11.90;10.00;;;;;;;19.56;58.16;99850.97;126831;1090;102943;-83
2021/06/12 05:16:25;;;;;;;12.30;10.93;;;;;;;19.74;57.98;99838.14;126742;1090;114449;-83
2021/06/12 05:19:13;;;;;;;13.17;11.00;;;;;;;19.96;57.77;99840.00;126859;1088;102884;-82
2021/06/12 05:22:01;;;;;;;12.10;10.07;;;;;;;20.10;57.51;99831.80;126949;1089;102826;-83
2021/06/12 05:24:49;;;;;;;10.73;9.63;;;;;;;20.31;57.43;99831.95;126712;1090;114296;-82
2021/06/12 05:27:39;;;;;;;14.33;10.60;;;;;;;20.55;57.00;99831.83;126837;1090;102674;-81
2021/06/12 05:30:27;;;;;;;11.40;9.83;;;;;;;20.79;56.80;99830.69;126755;1089;113350;-81
2021/06/12 05:33:16;;;;;;;12.00;10.03;;;;;;;21.03;56.34;99822.56;126913;1090;102904;-81
2021/06/12 05:36:06;;;;;;;11.40;9.93;;;;;;;21.33;55.56;99829.80;126735;1089;114428;-81
2021/06/12 05:38:54;;;;;;;11.77;9.23;;;;;;;21.71;54.93;99828.38;126949;1090;102853;-81
2021/06/12 05:41:43;;;;;;;9.50;8.50;;;;;;;22.03;54.12;99833.60;126785;1090;114138;-81
2021/06/12 05:44:32;;;;;;;9.70;8.73;;;;;;;22.34;53.31;99817.69;126883;1089;102849;-82
2021/06/12 05:47:20;;;;;;;9.23;8.03;;;;;;;22.62;52.93;99824.89;126690;1089;114071;-81
2021/06/12 05:50:10;;;;;;;9.43;7.70;;;;;;;23.11;52.54;99817.86;126874;1090;102975;-83
2021/06/12 05:52:58;;;;;;;9.53;8.17;;;;;;;23.64;51.90;99818.27;126795;1090;114199;-82
2021/06/12 05:55:47;;;;;;;9.07;7.73;;;;;;;24.22;51.30;99817.24;126850;1090;102884;-82
2021/06/12 05:58:36;;;;;;;9.57;7.83;;;;;;;24.76;49.91;99811.08;126841;1088;114109;-82
2021/06/12 06:01:25;;;;;;;9.00;7.43;;;;;;;26.22;48.78;99800.75;126904;1090;102948;-81
2021/06/12 06:04:15;;;;;;;8.33;6.83;;;;;;;28.06;46.27;99793.25;126812;1089;102907;-81
2021/06/12 06:07:03;;;;;;;8.53;7.33;;;;;;;29.64;43.60;99784.73;126771;1088;113670;-81
2021/06/12 06:09:51;;;;;;;6.27;5.67;;;;;;;30.86;41.15;99793.17;126895;1090;102855;-81
2021/06/12 06:12:41;;;;;;;7.25;6.55;;;;;;;31.74;39.50;99794.63;126796;1089;113330;-81
2021/06/12 06:15:30;;;;;;;9.93;6.80;;;;;;;31.45;38.23;99795.64;126812;1090;102963;-81
2021/06/12 06:18:17;;;;;;;8.67;6.50;;;;;;;31.20;37.78;99782.56;126687;1090;112857;-81
2021/06/12 06:21:09;;;;;;;8.63;6.93;;;;;;;32.36;36.81;99783.80;126902;1089;102845;-81
2021/06/12 06:23:56;;;;;;;7.73;5.87;;;;;;;33.83;35.32;99781.09;126792;1090;114282;-82
2021/06/12 06:26:44;;;;;;;8.60;5.33;;;;;;;35.26;33.88;99776.27;126843;1089;102922;-82
2021/06/12 06:29:32;;;;;;;7.80;4.87;;;;;;;35.30;32.45;99772.06;126682;1089;114179;-81
2021/06/12 06:32:20;;;;;;;6.30;5.23;;;;;;;35.73;31.60;99772.13;126824;1090;103041;-81
2021/06/12 06:35:10;;;;;;;6.07;5.50;;;;;;;36.98;30.63;99774.34;126799;1089;114060;-82
2021/06/12 06:37:58;;;;;;;6.53;4.90;;;;;;;38.07;28.84;99772.90;126846;1090;104310;-82
2021/06/12 06:40:45;;;;;;;8.07;5.50;;;;;;;38.76;27.40;99778.36;126811;1089;114149;-82
2021/06/12 06:43:33;;;;;;;4.90;4.40;;;;;;;39.24;26.16;99786.05;126932;1090;102974;-82
2021/06/12 06:46:22;;;;;;;8.93;4.63;;;;;;;39.46;25.92;99777.94;126838;1090;103067;-82
2021/06/12 06:49:10;;;;;;;6.80;4.70;;;;;;;40.04;25.59;99775.80;126761;1090;113957;-82
2021/06/12 06:51:58;;;;;;;6.87;5.57;;;;;;;40.49;24.69;99769.27;126992;1089;102730;-82
2021/06/12 06:54:46;;;;;;;7.80;5.10;;;;;;;40.47;23.97;99772.27;126869;1090;114196;-82
2021/06/12 06:57:34;;;;;;;6.63;5.37;;;;;;;39.85;24.27;99773.34;126906;1090;102924;-82
2021/06/12 07:00:26;;;;;;;7.00;4.80;;;;;;;39.94;23.93;99772.92;126722;1090;113172;-82
2021/06/12 07:03:14;;;;;;;4.60;4.10;;;;;;;40.10;23.57;99775.63;127052;1089;102865;-82
2021/06/12 07:06:04;;;;;;;4.80;3.90;;;;;;;40.37;23.47;99769.38;126840;1090;114235;-81
2021/06/12 07:08:52;;;;;;;4.73;4.07;;;;;;;40.80;22.71;99764.95;127007;1089;102903;-80
2021/06/12 07:11:40;;;;;;;4.33;3.73;;;;;;;41.26;22.33;99750.61;126815;1090;112954;-82
2021/06/12 07:14:29;;;;;;;5.83;4.03;;;;;;;41.42;21.41;99758.93;126958;1088;102770;-81
2021/06/12 07:17:16;;;;;;;6.40;4.30;;;;;;;41.37;21.60;99756.17;126804;1088;113407;-81
2021/06/12 07:20:08;;;;;;;5.50;4.13;;;;;;;41.38;20.99;99753.16;126947;1090;102797;-82
2021/06/12 07:22:56;;;;;;;4.23;3.83;;;;;;;41.45;21.44;99750.19;126919;1089;114094;-82
2021/06/12 07:25:45;;;;;;;5.53;4.63;;;;;;;41.69;20.89;99750.66;126960;1090;102868;-81
2021/06/12 07:28:33;;;;;;;7.53;4.70;;;;;;;41.45;20.67;99739.23;126892;1089;103014;-81
2021/06/12 07:31:21;;;;;;;9.23;4.83;;;;;;;41.45;20.20;99737.33;126810;1090;113875;-81
2021/06/12 07:34:11;;;;;;;5.67;3.60;;;;;;;41.66;20.24;99732.84;126916;1090;102843;-81
2021/06/12 07:36:59;;;;;;;4.57;3.43;;;;;;;42.03;19.78;99738.22;126875;1090;113008;-81
2021/06/12 07:39:47;;;;;;;3.80;3.40;;;;;;;42.12;19.94;99736.63;126960;1089;102883;-81
2021/06/12 07:42:35;;;;;;;4.70;3.90;;;;;;;41.86;20.14;99724.73;126871;1090;113018;-81
2021/06/12 07:45:24;;;;;;;3.83;2.80;;;;;;;40.15;19.83;99729.24;127066;1090;102766;-81
2021/06/12 07:48:12;;;;;;;5.93;3.50;;;;;;;38.50;21.08;99729.90;126962;1090;113852;-81
2021/06/12 07:51:01;;;;;;;5.40;3.00;;;;;;;36.85;21.68;99739.23;126960;1090;102849;-81
2021/06/12 07:53:49;;;;;;;3.30;3.00;;;;;;;35.76;23.51;99726.60;126866;1089;114122;-81
2021/06/12 07:56:37;;;;;;;4.13;3.37;;;;;;;35.79;23.87;99726.14;126962;1088;103019;-80
2021/06/12 07:59:25;;;;;;;3.90;3.17;;;;;;;35.78;23.47;99719.89;126992;1090;114278;-81
2021/06/12 08:02:13;;;;;;;4.20;3.23;;;;;;;35.38;24.33;99720.31;127096;1090;103010;-81
2021/06/12 08:05:01;;;;;;;6.87;3.60;;;;;;;34.81;24.80;99716.74;126912;1090;113020;-81
2021/06/12 08:07:49;;;;;;;4.33;3.33;;;;;;;34.07;25.73;99716.52;126985;1090;102956;-81
2021/06/12 08:10:38;;;;;;;4.87;3.50;;;;;;;33.27;26.19;99715.84;126927;1090;102830;-81
2021/06/12 08:13:26;;;;;;;4.30;3.90;;;;;;;32.50;27.06;99714.51;126812;1090;114095;-80
2021/06/12 08:16:14;;;;;;;5.43;3.47;;;;;;;31.65;27.56;99717.61;126863;1089;102889;-82
2021/06/12 08:19:03;;;;;;;6.10;4.07;;;;;;;31.06;28.62;99726.03;126768;1088;113889;-82
2021/06/12 08:21:51;;;;;;;9.97;5.50;;;;;;;30.57;29.31;99718.73;126933;1090;102974;-82
2021/06/12 08:24:39;;;;;;;8.37;6.67;;;;;;;30.56;30.17;99715.20;126738;1089;114932;-82
2021/06/12 08:27:27;;;;;;;7.05;4.35;;;;;;;31.13;30.05;99722.39;126919;1090;102843;-82
2021/06/12 08:30:16;;;;;;;4.70;4.10;;;;;;;31.62;29.49;99716.14;126740;1089;114020;-81
2021/06/12 08:33:07;;;;;;;5.70;4.30;;;;;;;31.98;28.86;99704.33;126915;1089;102927;-82
2021/06/12 08:35:55;;;;;;;6.08;3.63;;;;;;;32.13;28.64;99707.69;126748;1090;114106;-83
2021/06/12 08:38:44;;;;;;;6.35;3.05;;;;;;;32.27;28.71;99701.34;126873;1090;102955;-83
2021/06/12 08:41:32;;;;;;;5.87;3.50;;;;;;;32.36;28.20;99702.01;126804;1088;114097;-81
2021/06/12 08:44:24;;;;;;;5.30;3.10;;;;;;;32.44;28.32;99694.54;126873;1090;102857;-81
2021/06/12 08:47:15;;;;;;;4.00;2.90;;;;;;;32.28;28.05;99694.91;126835;1089;114287;-82
2021/06/12 08:50:06;;;;;;;3.60;2.57;;;;;;;31.80;28.24;99694.09;126858;1090;103100;-82
2021/06/12 08:52:56;;;;;;;5.53;2.80;;;;;;;31.29;28.72;99696.22;126890;1090;102865;-81
2021/06/12 08:55:59;;;;;;;4.07;3.00;;;;;;;30.84;29.17;99696.44;126937;1090;102876;-81
2021/06/12 08:58:49;;;;;;;6.50;3.33;;;;;;;30.34;29.11;99700.03;126978;1089;102952;-81
2021/06/12 09:01:41;;;;;;;4.10;3.70;;;;;;;29.58;29.85;99709.38;126830;1089;113894;-81
2021/06/12 09:04:42;;;;;;;3.77;3.40;;;;;;;29.01;31.26;99708.05;127104;1089;103019;-81
2021/06/12 09:07:34;;;;;;;4.73;3.50;;;;;;;28.54;31.66;99692.95;126780;1088;114170;-81
2021/06/12 09:10:25;;;;;;;7.50;3.23;;;;;;;28.20;32.03;99698.68;126877;1090;102951;-81
2021/06/12 09:13:13;;;;;;;5.20;3.37;;;;;;;28.05;32.85;99691.55;126731;1090;112976;-81
2021/06/12 09:16:04;;;;;;;3.53;3.20;;;;;;;28.35;32.55;99687.21;126921;1088;102860;-81
2021/06/12 09:18:54;;;;;;;3.60;3.10;;;;;;;28.83;32.81;99686.03;126725;1089;118016;-81
2021/06/12 09:21:48;;;;;;;5.73;3.33;;;;;;;29.24;32.07;99691.89;126791;1090;102898;-82
2021/06/12 09:24:45;;;;;;;5.47;3.33;;;;;;;29.42;31.80;99684.31;126729;1090;113117;-81
2021/06/12 09:27:34;;;;;;;2.95;2.70;;;;;;;29.51;31.77;99682.42;126935;1089;102318;-81
2021/06/12 09:30:30;;;;;;;4.73;2.90;;;;;;;29.36;31.68;99685.06;126905;1089;114315;-81
2021/06/12 09:33:34;;;;;;;3.50;3.00;;;;;;;29.03;31.36;99683.70;126845;1089;100778;-81
2021/06/12 09:36:34;;;;;;;4.33;3.20;;;;;;;28.54;31.90;99684.06;126782;1090;114266;-81
2021/06/12 09:39:24;;;;;;;3.87;2.97;;;;;;;28.25;32.50;99680.23;126844;1089;103371;-81
2021/06/12 09:42:12;;;;;;;4.75;3.20;;;;;;;28.11;32.66;99672.91;126727;1088;113569;-81
2021/06/12 09:45:04;;;;;;;3.93;3.00;;;;;;;28.19;33.32;99669.37;126915;1090;100429;-81
2021/06/12 09:48:17;;;;;;;3.50;3.20;;;;;;;28.27;32.69;99667.48;126869;1090;113230;-82
2021/06/12 09:51:14;;;;;;;2.90;2.70;;;;;;;28.59;33.45;99665.60;126886;1090;102933;-82
2021/06/12 09:54:05;;;;;;;4.65;3.05;;;;;;;28.80;32.49;99656.88;126755;1090;113175;-82
2021/06/12 09:56:59;;;;;;;3.83;3.37;;;;;;;29.06;32.78;99656.48;126863;1089;101553;-82
2021/06/12 09:59:52;;;;;;;5.37;3.23;;;;;;;29.57;32.51;99649.42;126776;1090;114103;-82
2021/06/12 10:02:48;;;;;;;3.27;2.93;;;;;;;30.12;32.11;99647.23;126825;1090;103002;-81
2021/06/12 10:05:35;;;;;;;3.63;3.17;;;;;;;30.54;31.66;99641.07;126832;1090;112976;-81
2021/06/12 10:08:23;;;;;;;3.77;3.37;;;;;;;30.80;30.92;99629.72;126784;1090;102891;-81
2021/06/12 10:11:15;;;;;;;4.50;3.20;;;;;;;31.16;30.94;99625.02;126826;1090;102245;-83
2021/06/12 10:14:06;;;;;;;5.47;3.40;;;;;;;31.72;30.60;99619.58;126711;1089;113898;-81
2021/06/12 10:16:55;;;;;;;4.07;3.50;;;;;;;31.83;29.36;99612.78;126845;1090;103057;-81
2021/06/12 10:19:45;;;;;;;3.20;2.90;;;;;;;31.59;29.42;99614.08;126844;1090;113048;-81
2021/06/12 10:22:35;;;;;;;4.13;2.60;;;;;;;31.27;29.45;99610.20;126920;1090;103054;-81
2021/06/12 10:25:24;;;;;;;3.47;2.50;;;;;;;31.30;30.11;99604.42;126782;1090;114096;-81
2021/06/12 10:28:14;;;;;;;5.73;2.53;;;;;;;31.26;29.71;99597.77;126856;1090;102895;-81
2021/06/12 10:31:14;;;;;;;3.23;2.80;;;;;;;31.07;29.82;99591.20;126777;1090;113507;-82
2021/06/12 10:34:04;;;;;;;4.50;2.80;;;;;;;30.66;29.78;99591.92;126788;1090;102818;-81
2021/06/12 10:37:02;;;;;;;3.07;2.43;;;;;;;30.13;30.13;99585.19;126741;1090;113895;-82
2021/06/12 10:40:03;;;;;;;5.13;2.73;;;;;;;29.59;31.22;99592.81;126780;1090;103060;-82
2021/06/12 10:43:13;;;;;;;7.47;2.90;;;;;;;29.14;31.78;99600.04;126733;1090;112878;-81
2021/06/12 10:46:04;;;;;;;4.10;3.17;;;;;;;28.70;32.37;99597.24;126834;1089;103306;-82
2021/06/12 10:49:03;;;;;;;5.53;3.63;;;;;;;28.29;33.15;99602.95;126776;1090;113942;-82
2021/06/12 10:51:52;;;;;;;5.87;3.70;;;;;;;27.86;34.33;99588.30;126857;1089;102850;-82
2021/06/12 10:54:40;;;;;;;4.43;3.50;;;;;;;27.39;35.73;99591.82;126714;1090;114269;-82
2021/06/12 10:57:38;;;;;;;5.20;3.80;;;;;;;27.08;36.55;99594.42;126850;1090;102967;-82
2021/06/12 11:00:28;;;;;;;4.60;3.57;;;;;;;26.84;37.23;99589.92;126743;1090;113052;-82
2021/06/12 11:04:00;;;;;;;3.50;3.13;;;;;;;26.71;38.08;99584.25;126826;1090;102872;-82
2021/06/12 11:06:55;;;;;;;3.43;3.07;;;;;;;26.60;38.64;99568.56;126790;1090;113871;-81
2021/06/12 11:09:44;;;;;;;7.53;4.43;;;;;;;26.63;39.26;99553.01;126907;1090;102968;-81
2021/06/12 11:12:34;;;;;;;4.27;3.53;;;;;;;26.88;39.54;99540.41;126824;1090;113940;-81
2021/06/12 11:15:34;;;;;;;3.80;3.00;;;;;;;27.43;39.19;99523.51;126820;1087;102863;-81
2021/06/12 11:18:24;;;;;;;4.20;2.70;;;;;;;28.14;38.28;99514.38;126757;1090;114186;-82
2021/06/12 11:21:11;;;;;;;3.27;2.50;;;;;;;28.70;37.15;99511.38;126877;1088;102878;-82
2021/06/12 11:23:59;;;;;;;3.93;2.83;;;;;;;29.27;36.45;99511.61;127026;1089;113156;-81
2021/06/12 11:26:58;;;;;;;4.73;2.50;;;;;;;29.69;35.59;99501.98;126783;1090;102916;-81
2021/06/12 11:30:17;;;;;;;4.33;2.60;;;;;;;30.16;35.01;99493.36;126812;1090;114159;-81
2021/06/12 11:33:13;;;;;;;3.30;2.63;;;;;;;30.61;33.60;99493.92;126964;1089;102775;-81
2021/06/12 11:36:01;;;;;;;5.63;3.43;;;;;;;30.74;32.76;99479.77;126727;1090;113067;-81
2021/06/12 11:38:58;;;;;;;3.57;3.10;;;;;;;30.45;32.71;99476.22;126885;1089;103172;-81
2021/06/12 11:41:47;;;;;;;3.17;2.90;;;;;;;30.32;33.18;99470.73;126870;1090;113264;-81
2021/06/12 11:44:35;;;;;;;2.80;2.30;;;;;;;30.18;32.66;99459.06;126904;1088;102859;-81
2021/06/12 11:47:28;;;;;;;5.10;2.80;;;;;;;30.31;32.94;99455.63;126780;1090;103110;-81
2021/06/12 11:50:24;;;;;;;3.87;2.87;;;;;;;30.36;32.92;99454.03;126727;1090;113757;-81
2021/06/12 11:53:14;;;;;;;3.90;2.30;;;;;;;30.32;32.17;99443.83;126864;1088;103007;-81
2021/06/12 11:56:02;;;;;;;2.50;2.30;;;;;;;30.32;32.18;99447.35;126789;1089;113077;-81
2021/06/12 11:58:58;;;;;;;3.53;2.80;;;;;;;30.33;31.78;99445.48;126850;1089;102908;-81
2021/06/12 12:01:48;;;;;;;5.50;2.50;;;;;;;30.25;31.52;99442.96;126693;1089;113894;-81
2021/06/12 12:04:42;;;;;;;2.67;2.43;;;;;;;30.01;31.23;99436.97;126907;1089;101423;-81
2021/06/12 12:07:30;;;;;;;4.33;2.87;;;;;;;29.56;31.29;99445.41;126687;1090;113973;-81
2021/06/12 12:10:25;;;;;;;6.10;3.07;;;;;;;29.03;32.12;99436.72;126858;1088;102852;-81
2021/06/12 12:13:34;;;;;;;3.17;2.87;;;;;;;28.54;32.37;99426.53;126801;1090;114120;-81
2021/06/12 12:16:24;;;;;;;3.20;2.77;;;;;;;28.27;32.79;99419.95;126762;1088;103015;-81
2021/06/12 12:19:15;;;;;;;3.05;2.80;;;;;;;28.06;32.97;99423.31;126751;1088;114360;-80
2021/06/12 12:22:11;;;;;;;4.20;2.70;;;;;;;27.84;33.18;99418.82;126870;1089;102862;-80
2021/06/12 12:25:02;;;;;;;5.23;2.40;;;;;;;27.56;34.02;99421.17;126777;1088;112813;-81
2021/06/12 12:28:05;;;;;;;5.77;2.50;;;;;;;27.35;34.08;99414.61;126897;1089;102838;-82
2021/06/12 12:31:12;;;;;;;2.80;2.50;;;;;;;27.15;34.57;99418.75;126759;1090;114099;-81
2021/06/12 12:34:01;;;;;;;4.70;2.90;;;;;;;27.03;34.97;99415.63;126905;1089;101957;-81
2021/06/12 12:36:50;;;;;;;4.00;2.90;;;;;;;26.97;35.32;99410.95;126758;1089;113969;-81
2021/06/12 12:39:43;;;;;;;2.50;2.30;;;;;;;26.87;35.35;99415.66;126847;1089;102847;-81
2021/06/12 12:42:31;;;;;;;4.80;2.50;;;;;;;26.71;35.33;99413.05;126789;1090;113088;-81
2021/06/12 12:45:20;;;;;;;6.60;2.70;;;;;;;26.55;35.95;99405.91;126839;1090;101980;-81
2021/06/12 12:48:10;;;;;;;2.70;2.50;;;;;;;26.43;36.22;99424.19;126773;1089;114198;-81
2021/06/12 12:50:59;;;;;;;23.90;4.50;;;;;;;26.18;37.97;99442.05;126800;1090;102943;-80
2021/06/12 12:53:47;;;;;;;15.55;3.45;;;;;;;25.34;42.05;99526.90;126884;1090;103678;-81
2021/06/12 12:56:52;;;;;;;11.97;4.20;;;;;;;24.27;45.76;99505.88;126795;1090;113987;-84
2021/06/12 12:59:46;;;;;;;9.40;4.50;;;;;;;23.08;48.32;99534.38;126808;1089;102989;-81
2021/06/12 13:02:39;;;;;;;4.90;3.30;;;;;;;21.94;50.86;99526.42;126756;1089;112677;-81
2021/06/12 13:05:30;;;;;;;6.07;4.60;;;;;;;21.18;53.72;99544.63;126904;1090;102926;-82